Time;durP1;ratioP1;P1;durP2;ratioP2;P2;SDS_P1;SDS_P2;PMS_P1;PMS_P2;Temp;Humidity;BMP_temperature;BMP_pressure;BME280_temperature;BME280_humidity;BME280_pressure;Samples;Min_cycle;Max_cycle;Signal;HPM_P1;HPM_P2
2022/12/20 00:03:59;;;;;;;;;;;;;;;3.01;82.67;100876.34;2764203;83;20158;-87
2022/12/20 00:08:00;;;;;;;;;;;;;;;3.03;82.54;100880.23;2800631;84;20121;-87
2022/12/20 00:12:01;;;;;;;;;;;;;;;3.00;82.51;100904.42;2812403;83;20137;-87
2022/12/20 00:16:07;;;;;;;;;;;;;;;2.96;82.79;100898.02;2810620;83;20220;-88
2022/12/20 00:20:09;;;;;;;;;;;;;;;2.85;82.96;100906.34;2831309;82;20098;-87
2022/12/20 00:24:10;;;;;;;;;;;;;;;2.78;83.07;100908.83;2818538;83;20145;-88
2022/12/20 00:28:11;;;;;;;;;;;;;;;2.67;83.76;100890.86;2803707;83;20395;-87
2022/12/20 00:32:12;;;;;;;;;;;;;;;2.63;84.34;100874.79;2807758;82;20120;-88
2022/12/20 00:36:14;;;;;;;;;;;;;;;2.61;84.46;100874.87;2835156;83;20501;-87
2022/12/20 00:40:15;;;;;;;;;;;;;;;2.57;85.30;100860.16;2843451;82;20107;-87
2022/12/20 00:44:16;;;;;;;;;;;;;;;2.54;84.97;100862.88;2834136;83;20137;-88
2022/12/20 00:48:17;;;;;;;;;;;;;;;2.55;84.34;100864.58;2828924;83;20653;-88
2022/12/20 00:52:18;;;;;;;;;;;;;;;2.47;83.98;100863.59;2817990;83;20139;-88
2022/12/20 00:56:20;;;;;;;;;;;;;;;2.44;83.91;100862.38;2781267;83;20116;-88
2022/12/20 01:00:21;;;;;;;;;;;;;;;2.46;84.21;100848.75;2832503;83;20149;-88
2022/12/20 01:04:22;;;;;;;;;;;;;;;2.44;84.24;100850.56;2837601;82;20714;-87
2022/12/20 01:08:24;;;;;;;;;;;;;;;2.43;84.75;100848.41;2838017;82;20183;-87
2022/12/20 01:12:25;;;;;;;;;;;;;;;2.42;84.48;100841.44;2831736;83;20539;-87
2022/12/20 01:16:33;;;;;;;;;;;;;;;2.53;84.36;100839.70;2836311;83;20121;-88
2022/12/20 01:20:34;;;;;;;;;;;;;;;2.58;84.22;100844.79;2842156;83;20138;-87
2022/12/20 01:24:35;;;;;;;;;;;;;;;2.68;83.69;100835.61;2838075;83;20373;-88
2022/12/20 01:28:37;;;;;;;;;;;;;;;2.78;83.21;100833.47;2837161;82;20261;-88
2022/12/20 01:32:39;;;;;;;;;;;;;;;2.89;83.29;100834.34;2816780;83;33419;-87
2022/12/20 01:36:41;;;;;;;;;;;;;;;2.92;82.77;100825.02;2834325;83;20137;-87
2022/12/20 01:40:42;;;;;;;;;;;;;;;2.97;82.09;100813.00;2831947;83;20137;-87
2022/12/20 01:44:46;;;;;;;;;;;;;;;2.95;82.19;100810.45;2782486;83;20132;-87
2022/12/20 01:48:57;;;;;;;;;;;;;;;3.07;81.95;100806.90;2831128;83;20504;-87
2022/12/20 01:52:59;;;;;;;;;;;;;;;3.03;81.63;100800.07;2743559;85;20105;-88
2022/12/20 01:57:03;;;;;;;;;;;;;;;2.99;81.55;100788.38;2827276;82;20227;-88
2022/12/20 02:01:04;;;;;;;;;;;;;;;3.08;81.48;100785.82;2837987;83;20243;-88
2022/12/20 02:05:06;;;;;;;;;;;;;;;3.12;81.11;100777.32;2842171;83;20299;-86
2022/12/20 02:09:10;;;;;;;;;;;;;;;3.14;80.93;100763.64;2822820;83;20152;-88
2022/12/20 02:18:11;;;;;;;;;;;;;;;3.20;80.88;100762.53;2660296;85;73993;-91
2022/12/20 02:22:38;;;;;;;;;;;;;;;3.22;80.97;100757.61;2619999;89;20096;-91
2022/12/20 02:26:52;;;;;;;;;;;;;;;3.26;80.90;100750.45;2684187;86;20158;-91
2022/12/20 02:30:54;;;;;;;;;;;;;;;3.24;81.06;100741.31;2667768;87;20156;-94
2022/12/20 02:34:55;;;;;;;;;;;;;;;3.31;80.80;100743.66;2657611;88;20199;-93
2022/12/20 02:38:56;;;;;;;;;;;;;;;3.31;80.90;100745.84;2699830;86;20161;-94
2022/12/20 02:45:13;;;;;;;;;;;;;;;3.29;81.27;100737.17;2763857;80;20563;-94
2022/12/20 02:47:09;;;;;;;;;;;;;;;3.29;80.89;100745.89;2827333;81;20126;-94
2022/12/20 02:51:11;;;;;;;;;;;;;;;3.36;81.11;100739.91;2838165;81;20816;-94
2022/12/20 02:55:13;;;;;;;;;;;;;;;3.32;81.12;100737.03;2872390;81;20172;-93
2022/12/20 02:59:20;;;;;;;;;;;;;;;3.34;81.29;100740.44;2863057;81;20112;-94
2022/12/20 03:03:21;;;;;;;;;;;;;;;3.41;80.84;100744.50;2866173;80;20130;-93
2022/12/20 03:07:23;;;;;;;;;;;;;;;3.42;80.56;100752.78;2845441;81;20145;-92
2022/12/20 03:11:24;;;;;;;;;;;;;;;3.45;80.16;100746.53;2871160;80;20150;-91
2022/12/20 03:15:25;;;;;;;;;;;;;;;3.43;79.97;100740.49;2848738;81;20124;-91
2022/12/20 03:19:26;;;;;;;;;;;;;;;3.42;79.93;100735.68;2832095;81;20170;-93
2022/12/20 03:23:27;;;;;;;;;;;;;;;3.38;80.25;100741.17;2842922;81;20106;-93
2022/12/20 03:27:28;;;;;;;;;;;;;;;3.34;80.32;100745.70;2865542;80;20141;-93
2022/12/20 03:31:29;;;;;;;;;;;;;;;3.47;80.03;100746.00;2870630;80;20094;-93
2022/12/20 03:35:30;;;;;;;;;;;;;;;3.29;80.21;100741.95;2901835;80;20594;-93
2022/12/20 03:39:31;;;;;;;;;;;;;;;3.41;79.64;100751.55;2857340;81;20129;-93
2022/12/20 03:43:32;;;;;;;;;;;;;;;3.40;79.50;100748.05;2874837;81;20129;-93
2022/12/20 03:47:33;;;;;;;;;;;;;;;3.27;80.26;100750.38;2853029;80;20165;-95
2022/12/20 03:51:34;;;;;;;;;;;;;;;3.31;80.44;100758.13;2854452;81;20222;-93
2022/12/20 03:55:35;;;;;;;;;;;;;;;3.31;80.77;100756.80;2864336;80;20187;-95
2022/12/20 03:59:36;;;;;;;;;;;;;;;3.22;81.23;100743.60;2838148;80;20172;-93
2022/12/20 04:03:37;;;;;;;;;;;;;;;3.26;81.17;100744.72;2838125;80;20132;-93
2022/12/20 04:07:38;;;;;;;;;;;;;;;3.23;81.01;100743.55;2814329;81;20144;-93
2022/12/20 04:11:40;;;;;;;;;;;;;;;3.19;81.68;100752.50;2842392;80;20114;-96
2022/12/20 04:15:41;;;;;;;;;;;;;;;3.24;81.41;100759.72;2862654;81;20122;-95
2022/12/20 04:19:42;;;;;;;;;;;;;;;3.22;81.29;100758.06;2901099;80;20583;-95
2022/12/20 04:23:44;;;;;;;;;;;;;;;3.29;80.96;100753.78;2852220;80;20135;-94
2022/12/20 04:27:45;;;;;;;;;;;;;;;3.17;81.16;100753.03;2906995;80;20175;-95
2022/12/20 04:31:46;;;;;;;;;;;;;;;3.19;80.90;100746.37;2893115;80;20128;-94
2022/12/20 04:35:47;;;;;;;;;;;;;;;3.16;81.04;100739.48;2905953;80;20188;-96
2022/12/20 04:39:48;;;;;;;;;;;;;;;3.10;80.72;100739.73;2884151;80;20171;-95
2022/12/20 04:43:51;;;;;;;;;;;;;;;3.11;80.74;100730.92;2904124;79;20142;-96
2022/12/20 04:47:52;;;;;;;;;;;;;;;3.07;81.37;100734.61;2893022;80;20436;-94
2022/12/20 04:51:53;;;;;;;;;;;;;;;3.07;81.05;100728.91;2889558;80;20174;-93
2022/12/20 04:55:54;;;;;;;;;;;;;;;3.04;81.34;100723.77;2816682;82;20138;-90
2022/12/20 04:59:55;;;;;;;;;;;;;;;3.07;81.51;100736.80;2781795;83;20157;-90
2022/12/20 05:03:56;;;;;;;;;;;;;;;3.06;81.22;100737.72;2842511;82;20108;-88
2022/12/20 05:07:57;;;;;;;;;;;;;;;3.00;81.42;100748.03;2833660;82;20123;-91
2022/12/20 05:11:58;;;;;;;;;;;;;;;3.12;81.41;100742.70;2865264;82;20153;-89
2022/12/20 05:16:00;;;;;;;;;;;;;;;3.09;81.12;100730.14;2784422;83;20152;-89
2022/12/20 05:20:01;;;;;;;;;;;;;;;3.14;81.23;100745.25;2815459;82;20167;-90
2022/12/20 05:28:22;;;;;;;;;;;;;;;3.04;81.81;100731.65;2809334;82;20490;-90
2022/12/20 05:32:23;;;;;;;;;;;;;;;3.19;81.42;100726.65;2840899;82;20120;-89
2022/12/20 05:36:24;;;;;;;;;;;;;;;3.17;82.07;100717.53;2820434;82;20176;-89
2022/12/20 05:40:25;;;;;;;;;;;;;;;3.22;82.21;100715.55;2825271;82;20132;-90
2022/12/20 05:44:26;;;;;;;;;;;;;;;3.26;81.81;100721.05;2831751;81;20157;-90
2022/12/20 05:48:27;;;;;;;;;;;;;;;3.37;81.69;100721.05;2844074;83;20114;-89
2022/12/20 05:52:28;;;;;;;;;;;;;;;3.39;81.79;100708.69;2850139;82;20174;-89
2022/12/20 05:56:29;;;;;;;;;;;;;;;3.41;81.76;100700.27;2837689;82;20224;-89
2022/12/20 06:00:30;;;;;;;;;;;;;;;3.49;81.89;100704.70;2844679;82;20198;-89
2022/12/20 06:04:32;;;;;;;;;;;;;;;3.45;81.68;100695.73;2794982;82;20147;-90
2022/12/20 06:08:33;;;;;;;;;;;;;;;3.46;81.67;100702.22;2840086;82;20141;-90
2022/12/20 06:12:34;;;;;;;;;;;;;;;3.62;81.39;100708.09;2842992;83;20183;-90
2022/12/20 06:16:35;;;;;;;;;;;;;;;3.61;81.05;100702.44;2822529;83;20153;-90
2022/12/20 06:20:36;;;;;;;;;;;;;;;3.57;81.24;100707.85;2823173;82;20120;-90
2022/12/20 06:24:38;;;;;;;;;;;;;;;3.61;81.17;100715.59;2800942;82;20131;-90
2022/12/20 06:28:41;;;;;;;;;;;;;;;3.59;81.29;100709.56;2798550;82;20111;-90
2022/12/20 06:32:42;;;;;;;;;;;;;;;3.57;81.52;100710.93;2809103;82;20112;-90
2022/12/20 06:36:43;;;;;;;;;;;;;;;3.60;81.64;100713.41;2799988;82;20511;-90
2022/12/20 06:40:44;;;;;;;;;;;;;;;3.62;81.58;100708.94;2837939;82;20999;-90
2022/12/20 06:44:45;;;;;;;;;;;;;;;3.67;81.36;100712.67;2834984;82;20129;-90
2022/12/20 06:48:46;;;;;;;;;;;;;;;3.63;81.48;100704.54;2783301;83;20723;-90
2022/12/20 06:52:47;;;;;;;;;;;;;;;3.65;81.42;100711.45;2802861;83;20144;-87
2022/12/20 06:56:48;;;;;;;;;;;;;;;3.64;81.58;100718.08;2823581;83;20651;-89
2022/12/20 07:00:49;;;;;;;;;;;;;;;3.65;81.41;100712.77;2817537;83;20129;-90
2022/12/20 07:04:50;;;;;;;;;;;;;;;3.64;81.61;100724.66;2798782;83;20342;-89
2022/12/20 07:08:51;;;;;;;;;;;;;;;3.68;81.92;100720.95;2805288;83;20659;-89
2022/12/20 07:12:52;;;;;;;;;;;;;;;3.66;81.36;100722.36;2815658;83;20136;-90
2022/12/20 07:16:53;;;;;;;;;;;;;;;3.72;81.46;100726.46;2834810;83;20139;-89
2022/12/20 07:21:00;;;;;;;;;;;;;;;3.68;81.56;100720.52;2847329;81;20137;-90
2022/12/20 07:25:01;;;;;;;;;;;;;;;3.66;81.25;100722.81;2886074;81;20164;-89
2022/12/20 07:29:02;;;;;;;;;;;;;;;3.74;81.02;100726.41;2847478;81;20136;-90
2022/12/20 07:33:03;;;;;;;;;;;;;;;3.74;80.87;100731.22;2870518;81;20176;-90
2022/12/20 07:37:07;;;;;;;;;;;;;;;3.69;81.32;100727.48;2871251;81;20112;-90
2022/12/20 07:41:10;;;;;;;;;;;;;;;3.76;81.34;100724.11;2832731;81;20240;-90
2022/12/20 07:45:11;;;;;;;;;;;;;;;3.75;80.53;100719.77;2904961;80;20471;-90
2022/12/20 07:49:12;;;;;;;;;;;;;;;3.66;80.97;100714.92;2866689;81;20171;-90
2022/12/20 07:53:13;;;;;;;;;;;;;;;3.75;81.23;100719.77;2848015;81;20150;-90
2022/12/20 07:57:18;;;;;;;;;;;;;;;3.68;81.49;100709.12;2884266;80;20125;-90
2022/12/20 08:01:20;;;;;;;;;;;;;;;3.68;81.83;100707.80;2853175;81;20118;-89
2022/12/20 08:05:22;;;;;;;;;;;;;;;3.70;81.78;100708.58;2844260;81;20413;-89
2022/12/20 08:09:24;;;;;;;;;;;;;;;3.74;81.62;100703.59;2802996;82;20459;-90
2022/12/20 08:13:25;;;;;;;;;;;;;;;3.76;81.36;100699.11;2829861;81;20146;-90
2022/12/20 08:17:26;;;;;;;;;;;;;;;3.76;81.30;100708.31;2857624;81;20494;-89
2022/12/20 08:21:27;;;;;;;;;;;;;;;3.88;81.39;100716.55;2920190;81;20144;-90
2022/12/20 08:25:28;;;;;;;;;;;;;;;3.90;81.21;100721.27;2908560;80;20114;-90
2022/12/20 08:29:29;;;;;;;;;;;;;;;4.00;81.05;100715.50;2888249;81;20182;-90
2022/12/20 08:33:32;;;;;;;;;;;;;;;4.10;80.95;100706.70;2898599;81;20588;-89
2022/12/20 08:37:33;;;;;;;;;;;;;;;4.26;80.55;100707.28;2854090;81;20145;-89
2022/12/20 08:41:36;;;;;;;;;;;;;;;4.30;79.23;100695.66;2878279;81;20142;-89
2022/12/20 08:45:37;;;;;;;;;;;;;;;4.37;79.26;100691.81;2880097;81;20124;-89
2022/12/20 08:49:38;;;;;;;;;;;;;;;4.55;78.77;100701.05;2868573;81;20173;-89
2022/12/20 08:53:39;;;;;;;;;;;;;;;4.63;78.83;100696.23;2882590;81;20154;-89
2022/12/20 08:57:40;;;;;;;;;;;;;;;4.67;77.86;100699.09;2901054;80;20672;-89
2022/12/20 09:01:41;;;;;;;;;;;;;;;4.68;77.37;100692.89;2881380;81;20130;-89
2022/12/20 09:05:46;;;;;;;;;;;;;;;4.67;77.98;100681.97;2898362;81;20164;-90
2022/12/20 09:09:47;;;;;;;;;;;;;;;4.78;78.08;100697.72;2898732;81;20454;-89
2022/12/20 09:13:49;;;;;;;;;;;;;;;4.79;77.92;100704.69;2853999;81;20464;-89
2022/12/20 09:17:50;;;;;;;;;;;;;;;4.77;78.38;100677.56;2862110;81;20122;-89
2022/12/20 09:21:52;;;;;;;;;;;;;;;4.71;78.68;100673.45;2856566;81;20185;-89
2022/12/20 09:25:53;;;;;;;;;;;;;;;4.60;79.06;100679.27;2852775;81;20137;-89
2022/12/20 09:29:54;;;;;;;;;;;;;;;4.64;78.63;100679.98;2888653;81;20119;-89
2022/12/20 09:33:59;;;;;;;;;;;;;;;4.67;78.65;100696.95;2860946;81;20272;-89
2022/12/20 09:38:00;;;;;;;;;;;;;;;4.58;78.81;100687.72;2852479;81;20120;-90
2022/12/20 09:42:05;;;;;;;;;;;;;;;4.56;78.92;100685.63;2886889;81;20115;-90
2022/12/20 09:46:06;;;;;;;;;;;;;;;4.68;79.03;100700.80;2844026;81;20128;-90
2022/12/20 09:50:10;;;;;;;;;;;;;;;4.63;79.29;100698.03;2849693;81;20531;-89
2022/12/20 09:54:30;;;;;;;;;;;;;;;4.69;79.42;100690.65;2853675;81;20102;-89
2022/12/20 09:59:01;;;;;;;;;;;;;;;4.78;79.10;100704.30;2880795;81;20488;-90
2022/12/20 10:03:03;;;;;;;;;;;;;;;4.81;79.12;100719.48;2879520;81;20467;-89
2022/12/20 10:07:23;;;;;;;;;;;;;;;5.00;79.08;100719.86;2872698;81;20113;-90
2022/12/20 10:11:49;;;;;;;;;;;;;;;5.09;78.81;100717.21;2864591;81;20556;-89
2022/12/20 10:16:26;;;;;;;;;;;;;;;5.31;77.98;100688.41;2787297;83;20155;-89
2022/12/20 10:20:30;;;;;;;;;;;;;;;5.37;76.81;100690.71;2794276;83;20113;-89
2022/12/20 10:24:33;;;;;;;;;;;;;;;5.49;76.53;100693.98;2773200;83;20127;-89
2022/12/20 10:28:35;;;;;;;;;;;;;;;5.70;75.89;100699.06;2799991;83;20147;-90
2022/12/20 10:32:36;;;;;;;;;;;;;;;5.79;75.23;100683.16;2777337;83;20147;-90
2022/12/20 10:36:37;;;;;;;;;;;;;;;5.70;74.74;100679.27;2824458;82;20148;-90
2022/12/20 10:40:48;;;;;;;;;;;;;;;5.53;75.05;100670.94;2822428;82;20120;-90
2022/12/20 10:44:49;;;;;;;;;;;;;;;5.37;76.47;100660.37;2815937;81;20134;-90
2022/12/20 10:48:50;;;;;;;;;;;;;;;5.28;76.73;100659.92;2773175;83;20632;-90
2022/12/20 10:53:19;;;;;;;;;;;;;;;5.02;77.24;100658.69;2772075;83;20125;-88
2022/12/20 10:57:26;;;;;;;;;;;;;;;5.00;77.75;100660.08;2775960;82;20160;-89
2022/12/20 11:01:35;;;;;;;;;;;;;;;4.93;78.12;100669.70;2790487;83;20119;-90
2022/12/20 11:05:37;;;;;;;;;;;;;;;5.02;77.94;100671.01;2812503;82;20273;-89
2022/12/20 11:09:39;;;;;;;;;;;;;;;4.98;78.13;100669.86;2800229;82;20587;-89
2022/12/20 11:13:41;;;;;;;;;;;;;;;4.94;78.42;100678.87;2836726;83;20132;-90
2022/12/20 11:17:49;;;;;;;;;;;;;;;4.96;78.48;100661.63;2815595;83;20147;-89
2022/12/20 11:22:05;;;;;;;;;;;;;;;4.95;78.84;100654.20;2822294;82;20117;-90
2022/12/20 11:26:25;;;;;;;;;;;;;;;4.98;78.98;100655.36;2781024;83;20149;-90
2022/12/20 11:30:51;;;;;;;;;;;;;;;4.86;78.62;100640.17;2768748;83;20181;-90
2022/12/20 11:35:19;;;;;;;;;;;;;;;4.84;78.97;100630.17;2821505;83;20154;-89
2022/12/20 11:39:30;;;;;;;;;;;;;;;4.88;79.26;100648.84;2816337;83;20140;-90
2022/12/20 11:43:52;;;;;;;;;;;;;;;4.81;79.84;100644.36;2805015;83;20181;-90
2022/12/20 11:47:59;;;;;;;;;;;;;;;4.83;79.52;100639.02;2810324;83;20103;-90
2022/12/20 11:52:07;;;;;;;;;;;;;;;4.92;79.32;100657.01;2775066;85;20154;-89
2022/12/20 11:56:14;;;;;;;;;;;;;;;4.86;79.46;100644.13;2779840;84;20098;-90
2022/12/20 12:00:16;;;;;;;;;;;;;;;4.87;79.57;100651.09;2786271;83;20229;-90
2022/12/20 12:04:26;;;;;;;;;;;;;;;4.83;80.16;100642.52;2812309;82;20466;-90
2022/12/20 12:08:30;;;;;;;;;;;;;;;4.79;80.02;100638.80;2829691;83;20139;-89
2022/12/20 12:12:47;;;;;;;;;;;;;;;4.80;79.79;100622.05;2817037;81;20126;-90
2022/12/20 12:16:50;;;;;;;;;;;;;;;4.74;79.91;100625.84;2781014;85;20145;-90
2022/12/20 12:20:57;;;;;;;;;;;;;;;4.71;80.49;100629.48;2792852;83;20143;-90
2022/12/20 12:25:01;;;;;;;;;;;;;;;4.71;80.39;100625.53;2786006;83;20134;-90
2022/12/20 12:29:09;;;;;;;;;;;;;;;4.76;80.19;100618.71;2765960;83;20157;-90
2022/12/20 12:33:19;;;;;;;;;;;;;;;4.78;80.37;100621.28;2806545;83;20120;-90
2022/12/20 12:37:42;;;;;;;;;;;;;;;4.80;80.33;100603.59;2736213;85;20123;-89
2022/12/20 12:42:10;;;;;;;;;;;;;;;4.74;80.45;100596.02;2842135;83;20147;-90
2022/12/20 12:46:30;;;;;;;;;;;;;;;4.68;81.14;100581.38;2783871;83;20165;-90
2022/12/20 12:50:37;;;;;;;;;;;;;;;4.71;81.01;100583.84;2785008;83;20135;-90
2022/12/20 12:54:40;;;;;;;;;;;;;;;4.70;81.18;100595.33;2790360;83;20172;-90
2022/12/20 12:58:41;;;;;;;;;;;;;;;4.69;81.06;100586.55;2837444;82;20101;-89
2022/12/20 13:02:50;;;;;;;;;;;;;;;4.68;81.45;100578.26;2812576;83;20179;-90
2022/12/20 13:07:00;;;;;;;;;;;;;;;4.76;81.35;100572.59;2788970;83;20180;-90
2022/12/20 13:11:02;;;;;;;;;;;;;;;4.55;81.88;100561.41;2792369;83;20167;-90
2022/12/20 13:15:22;;;;;;;;;;;;;;;4.51;82.02;100553.26;2748740;83;20460;-90
2022/12/20 13:19:30;;;;;;;;;;;;;;;4.54;82.52;100543.42;2781638;83;20110;-90
2022/12/20 13:23:31;;;;;;;;;;;;;;;4.51;82.49;100535.69;2791602;83;20151;-90
2022/12/20 13:27:40;;;;;;;;;;;;;;;4.61;83.10;100542.64;2786438;83;20131;-90
2022/12/20 13:31:41;;;;;;;;;;;;;;;4.52;83.26;100549.24;2757120;85;20145;-90
2022/12/20 13:36:01;;;;;;;;;;;;;;;4.53;83.04;100542.20;2788976;83;20287;-88
2022/12/20 13:40:04;;;;;;;;;;;;;;;4.64;83.16;100529.78;2801705;83;20155;-90
2022/12/20 13:44:17;;;;;;;;;;;;;;;4.64;82.51;100517.44;2788158;83;20137;-90
2022/12/20 13:48:22;;;;;;;;;;;;;;;4.67;82.48;100521.22;2797001;83;20127;-89
2022/12/20 13:52:31;;;;;;;;;;;;;;;4.74;81.86;100532.77;2774454;83;20442;-89
2022/12/20 13:56:48;;;;;;;;;;;;;;;4.63;81.55;100541.25;2774832;83;20158;-91
2022/12/20 14:00:49;;;;;;;;;;;;;;;4.55;82.31;100520.58;2845058;83;20411;-90
2022/12/20 14:04:57;;;;;;;;;;;;;;;4.49;82.41;100526.14;2787761;83;20177;-90
2022/12/20 14:08:58;;;;;;;;;;;;;;;4.48;82.13;100516.54;2771765;83;20192;-89
2022/12/20 14:13:00;;;;;;;;;;;;;;;4.53;81.55;100530.34;2792232;83;20124;-89
2022/12/20 14:17:30;;;;;;;;;;;;;;;4.52;81.53;100528.61;2817989;83;20123;-89
2022/12/20 14:21:33;;;;;;;;;;;;;;;4.33;81.94;100516.89;2750802;84;20109;-88
2022/12/20 14:25:37;;;;;;;;;;;;;;;4.45;81.72;100520.66;2761407;84;20690;-90
2022/12/20 14:29:39;;;;;;;;;;;;;;;4.37;82.52;100518.42;2760146;84;20153;-87
2022/12/20 14:33:41;;;;;;;;;;;;;;;4.28;83.08;100503.50;2762755;84;20136;-87
2022/12/20 14:37:46;;;;;;;;;;;;;;;4.40;82.74;100490.15;2737825;84;20109;-90
2022/12/20 14:41:50;;;;;;;;;;;;;;;4.39;82.01;100497.67;2760258;84;20146;-90
2022/12/20 14:46:12;;;;;;;;;;;;;;;4.43;82.19;100472.86;2769706;84;20133;-91
2022/12/20 14:50:20;;;;;;;;;;;;;;;4.47;81.70;100467.42;2753086;84;20123;-91
2022/12/20 14:54:26;;;;;;;;;;;;;;;4.45;81.58;100469.30;2772116;84;20160;-91
2022/12/20 14:58:32;;;;;;;;;;;;;;;4.51;81.09;100459.73;2815298;83;20126;-91
2022/12/20 15:02:36;;;;;;;;;;;;;;;4.51;81.25;100463.23;2812201;83;20510;-91
2022/12/20 15:06:47;;;;;;;;;;;;;;;4.58;81.06;100463.77;2809906;83;20124;-91
2022/12/20 15:11:05;;;;;;;;;;;;;;;4.64;80.83;100470.48;2792689;83;20123;-91
2022/12/20 15:15:10;;;;;;;;;;;;;;;4.61;80.60;100460.95;2811636;82;20160;-91
2022/12/20 15:19:11;;;;;;;;;;;;;;;4.69;80.47;100456.59;2799965;83;20579;-90
2022/12/20 15:23:17;;;;;;;;;;;;;;;4.62;80.49;100445.52;2768817;84;20165;-91
2022/12/20 15:27:19;;;;;;;;;;;;;;;4.69;80.90;100441.61;2782169;84;20136;-90
2022/12/20 15:31:23;;;;;;;;;;;;;;;4.70;80.77;100428.81;2786156;84;20454;-92
2022/12/20 15:35:24;;;;;;;;;;;;;;;4.73;80.46;100429.12;2783203;83;20486;-91
2022/12/20 15:39:26;;;;;;;;;;;;;;;4.60;81.15;100432.91;2785607;84;20120;-90
2022/12/20 15:43:29;;;;;;;;;;;;;;;4.60;80.80;100426.77;2789740;84;20439;-89
2022/12/20 15:47:30;;;;;;;;;;;;;;;4.62;80.77;100441.58;2801036;84;20621;-92
2022/12/20 15:51:33;;;;;;;;;;;;;;;4.67;81.50;100447.44;2793749;84;20147;-92
2022/12/20 15:55:34;;;;;;;;;;;;;;;4.66;81.04;100431.73;2774592;84;20415;-91
2022/12/20 15:59:35;;;;;;;;;;;;;;;4.70;80.86;100436.72;2811956;84;20141;-91
2022/12/20 16:03:36;;;;;;;;;;;;;;;4.58;80.81;100432.14;2788493;84;20178;-91
2022/12/20 16:07:37;;;;;;;;;;;;;;;4.61;80.60;100429.34;2790621;84;20364;-90
2022/12/20 16:11:39;;;;;;;;;;;;;;;4.55;80.73;100420.45;2793593;84;20928;-92
2022/12/20 16:15:40;;;;;;;;;;;;;;;4.59;80.68;100433.84;2778128;83;20129;-90
2022/12/20 16:19:42;;;;;;;;;;;;;;;4.60;80.71;100444.77;2773934;84;20588;-92
2022/12/20 16:23:43;;;;;;;;;;;;;;;4.60;80.84;100434.23;2781368;83;20118;-90
2022/12/20 16:27:44;;;;;;;;;;;;;;;4.48;80.94;100433.56;2782113;83;20127;-93
2022/12/20 16:31:45;;;;;;;;;;;;;;;4.53;80.29;100452.14;2777768;84;20136;-95
2022/12/20 16:35:46;;;;;;;;;;;;;;;4.50;80.30;100448.81;2777242;84;20143;-90
2022/12/20 16:39:47;;;;;;;;;;;;;;;4.52;80.30;100448.27;2777690;82;20098;-91
2022/12/20 16:43:49;;;;;;;;;;;;;;;4.53;79.67;100449.51;2736213;84;20175;-91
2022/12/20 16:47:51;;;;;;;;;;;;;;;4.51;79.65;100451.83;2794996;84;20194;-90
2022/12/20 16:51:52;;;;;;;;;;;;;;;4.28;80.42;100428.45;2809068;84;20147;-90
2022/12/20 16:55:53;;;;;;;;;;;;;;;4.32;80.30;100438.33;2801706;84;20759;-90
2022/12/20 16:59:55;;;;;;;;;;;;;;;4.35;79.94;100440.83;2787945;84;20140;-90
2022/12/20 17:03:56;;;;;;;;;;;;;;;4.39;79.70;100444.98;2736820;84;20257;-90
2022/12/20 17:07:57;;;;;;;;;;;;;;;4.23;80.57;100424.34;2735339;84;20134;-91
2022/12/20 17:11:58;;;;;;;;;;;;;;;4.23;81.10;100425.66;2783986;84;20139;-91
2022/12/20 17:15:59;;;;;;;;;;;;;;;4.18;81.32;100434.28;2800259;84;20131;-90
2022/12/20 17:20:00;;;;;;;;;;;;;;;4.16;81.43;100443.56;2787933;82;20119;-90
2022/12/20 17:24:04;;;;;;;;;;;;;;;4.00;81.41;100436.46;2814184;83;20460;-90
2022/12/20 17:28:05;;;;;;;;;;;;;;;3.97;81.44;100441.89;2843351;83;20136;-90
2022/12/20 17:32:16;;;;;;;;;;;;;;;3.88;81.74;100434.94;2852733;83;20152;-90
2022/12/20 17:36:17;;;;;;;;;;;;;;;3.89;82.33;100432.23;2808161;83;20150;-90
2022/12/20 17:40:18;;;;;;;;;;;;;;;3.85;82.56;100427.59;2817230;83;20123;-89
2022/12/20 17:44:22;;;;;;;;;;;;;;;3.96;82.20;100418.30;2833709;83;21795;-89
2022/12/20 17:48:23;;;;;;;;;;;;;;;3.92;82.15;100412.78;2815394;82;20720;-90
2022/12/20 17:52:25;;;;;;;;;;;;;;;3.97;81.68;100410.30;2821272;83;20182;-91
2022/12/20 17:56:32;;;;;;;;;;;;;;;4.00;81.63;100398.78;2826391;82;20422;-91
2022/12/20 18:00:33;;;;;;;;;;;;;;;4.03;81.82;100403.88;2815242;83;20190;-91
2022/12/20 18:04:34;;;;;;;;;;;;;;;4.07;81.90;100405.41;2774980;83;20123;-92
2022/12/20 18:08:35;;;;;;;;;;;;;;;4.11;81.46;100405.63;2826607;83;20225;-91
2022/12/20 18:12:37;;;;;;;;;;;;;;;4.14;81.00;100414.70;2820389;83;20186;-92
2022/12/20 18:16:39;;;;;;;;;;;;;;;4.20;80.52;100413.50;2808793;83;20109;-92
2022/12/20 18:20:40;;;;;;;;;;;;;;;4.16;80.84;100404.07;2824910;82;20118;-89
2022/12/20 18:24:41;;;;;;;;;;;;;;;4.14;81.08;100392.77;2920738;79;20152;-90
2022/12/20 18:28:44;;;;;;;;;;;;;;;4.17;81.82;100400.50;2912139;80;20180;-90
2022/12/20 18:32:45;;;;;;;;;;;;;;;4.20;81.09;100388.97;2907706;80;20103;-94
2022/12/20 18:36:46;;;;;;;;;;;;;;;4.25;81.29;100377.72;2888916;80;20170;-93
2022/12/20 18:40:47;;;;;;;;;;;;;;;4.20;81.40;100366.11;2917363;79;20136;-92
2022/12/20 18:44:49;;;;;;;;;;;;;;;4.12;81.72;100356.47;2873693;80;20107;-92
2022/12/20 18:48:54;;;;;;;;;;;;;;;4.11;81.67;100355.60;2912278;80;20372;-92
2022/12/20 18:52:55;;;;;;;;;;;;;;;4.16;82.06;100351.41;2917094;80;20145;-92
2022/12/20 18:56:57;;;;;;;;;;;;;;;4.12;81.97;100332.29;2891156;80;20134;-93
2022/12/20 19:00:59;;;;;;;;;;;;;;;4.19;82.22;100326.71;2922289;80;20174;-91
2022/12/20 19:05:00;;;;;;;;;;;;;;;4.19;81.73;100339.88;2918969;79;20127;-91
2022/12/20 19:09:05;;;;;;;;;;;;;;;4.23;81.56;100333.05;2917997;80;20463;-91
2022/12/20 19:13:06;;;;;;;;;;;;;;;4.13;81.56;100323.48;2925015;80;20426;-91
2022/12/20 19:17:07;;;;;;;;;;;;;;;4.17;81.24;100322.00;2922325;80;20100;-92
2022/12/20 19:21:15;;;;;;;;;;;;;;;4.23;81.33;100333.05;2910115;79;20149;-92
2022/12/20 19:25:15;;;;;;;;;;;;;;;4.12;81.90;100313.86;2873112;81;20180;-91
2022/12/20 19:29:17;;;;;;;;;;;;;;;4.08;81.89;100310.19;2839047;81;20154;-91
2022/12/20 19:33:18;;;;;;;;;;;;;;;4.12;81.60;100305.96;2870720;81;20190;-91
2022/12/20 19:37:19;;;;;;;;;;;;;;;4.07;81.85;100300.11;2749381;84;20174;-91
2022/12/20 19:41:21;;;;;;;;;;;;;;;4.12;82.17;100306.45;2782679;83;20459;-91
2022/12/20 19:45:22;;;;;;;;;;;;;;;4.10;82.47;100314.89;2829103;83;20167;-93
2022/12/20 19:49:23;;;;;;;;;;;;;;;4.14;82.44;100319.05;2796679;83;20172;-91
2022/12/20 19:53:24;;;;;;;;;;;;;;;3.98;83.17;100315.93;2811120;83;20142;-92
2022/12/20 19:57:25;;;;;;;;;;;;;;;4.05;82.82;100308.55;2786460;83;20100;-90
2022/12/20 20:01:27;;;;;;;;;;;;;;;4.06;83.20;100304.98;2784296;83;20183;-92
2022/12/20 20:05:28;;;;;;;;;;;;;;;4.11;83.00;100313.48;2795781;83;20158;-93
2022/12/20 20:09:29;;;;;;;;;;;;;;;4.17;82.97;100308.34;2781206;83;20177;-91
2022/12/20 20:13:31;;;;;;;;;;;;;;;4.02;83.59;100296.02;2775680;83;20135;-92
2022/12/20 20:17:32;;;;;;;;;;;;;;;4.04;84.07;100297.64;2776435;84;20477;-93
2022/12/20 20:21:35;;;;;;;;;;;;;;;4.06;84.49;100286.56;2793392;83;20147;-93
2022/12/20 20:25:36;;;;;;;;;;;;;;;4.08;84.07;100293.91;2776317;84;20122;-92
2022/12/20 20:29:37;;;;;;;;;;;;;;;4.12;83.53;100290.16;2776396;84;20107;-94
2022/12/20 20:33:38;;;;;;;;;;;;;;;4.24;83.09;100295.25;2727793;84;20147;-92
2022/12/20 20:37:39;;;;;;;;;;;;;;;4.34;82.62;100289.00;2771482;84;20168;-93
2022/12/20 20:41:41;;;;;;;;;;;;;;;4.19;83.53;100287.22;2721968;84;20175;-92
2022/12/20 20:45:42;;;;;;;;;;;;;;;4.09;83.69;100280.29;2778889;83;20115;-92
2022/12/20 20:49:43;;;;;;;;;;;;;;;4.07;83.34;100277.73;2788573;83;20397;-92
2022/12/20 20:53:44;;;;;;;;;;;;;;;4.14;82.98;100280.42;2747802;84;20127;-92
2022/12/20 20:57:45;;;;;;;;;;;;;;;4.14;83.16;100280.42;2777575;82;20128;-92
2022/12/20 21:01:46;;;;;;;;;;;;;;;4.03;83.24;100270.08;2792924;83;20154;-91
2022/12/20 21:05:47;;;;;;;;;;;;;;;4.04;83.34;100240.22;2766019;84;20574;-94
2022/12/20 21:09:48;;;;;;;;;;;;;;;3.99;84.15;100247.04;2767086;84;20120;-95
2022/12/20 21:13:49;;;;;;;;;;;;;;;4.09;83.89;100256.11;2786967;84;20137;-93
2022/12/20 21:17:50;;;;;;;;;;;;;;;4.12;83.66;100266.95;2762926;84;20162;-95
2022/12/20 21:21:51;;;;;;;;;;;;;;;4.14;83.60;100263.31;2762285;83;20334;-93